Карточка аэропорта URSS

Внимание!
Информация на этой странице в стадии наполнения.
Если вы не увидели какой-то информации, или заметили неточность - пожалуйста сообщите нам!
Спасибо!
Команда RU-STAFF
Название аэропортаСочи
Название аэропорта (англ.)Sochi
Превышение89 ft. (27.1 m.)
Координаты43°26.634', 39°56.55'
Высота перехода13000 ft
Эшелон переходаFL140 (QNH >= 1013); FL150 (QNH 977-1012); FL160 (QNH < 977)
Коды ответчика1060-1077
Зона ОрВДРостов-на-Дону РПИ (URRV)
Данные METARURSS 041900Z 10003MPS 9999 FEW050 OVC073 11/06 Q1026 R06/010070 R02/////// NOSIG RMK R02/06002MPS QFE769
Проноз погоды (TAF)URSS 041656Z 0418/0518 05003G08MPS 9999 SCT016 BKN050 OVC100 TEMPO 0418/0508 11004G09MPS BECMG 0508/0509 25003G08MPS SCT050 SCT100 BECMG 0514/0516 05003G08MPS
NOTAMshow/hide NOTAM
AWOS   TABLE

Информация о ВПП

ВПП Длина ВПП (м.) Покрытие Курс ВПП Частота ILS
022500Цементобетон22110.5
062890Цементобетон58111.1
202500Цементобетон202 
242890Цементобетон238 

Диспетчерские позиции

Позывной Наименование органа УВД Частота
URSS_DELСочи-Деливери132.700
URSS_APPСочи-Подход124.600
URSS_TWRСочи-Старт121.200
URSS_R_APPСочи-Круг119.700
URSS_GNDСочи-Руление119.000
URSS_FM1119.000



Спутниковое изображение